createdAt,value
2023-04-26T00:00:40.238Z,5.00
2023-04-26T00:05:47.737Z,5.00
2023-04-26T00:10:53.653Z,4.90
2023-04-26T00:15:59.457Z,4.80
2023-04-26T00:21:06.244Z,4.80
2023-04-26T00:26:12.483Z,4.70
2023-04-26T00:31:18.851Z,4.80
2023-04-26T00:36:26.311Z,4.80
2023-04-26T00:41:33.446Z,4.80
2023-04-26T00:46:39.252Z,4.90
2023-04-26T00:51:49.291Z,4.80
2023-04-26T00:56:56.001Z,4.90
2023-04-26T01:02:01.657Z,4.80
2023-04-26T01:07:07.436Z,4.80
2023-04-26T01:12:14.699Z,4.80
2023-04-26T01:17:20.655Z,4.80
2023-04-26T01:22:27.048Z,4.70
2023-04-26T01:27:33.158Z,4.60
2023-04-26T01:32:38.730Z,4.70
2023-04-26T01:37:45.064Z,4.70
2023-04-26T01:42:50.923Z,4.60
2023-04-26T01:47:57.262Z,4.50
2023-04-26T01:53:02.876Z,4.40
2023-04-26T01:58:09.209Z,4.30
2023-04-26T02:03:15.535Z,4.20
2023-04-26T02:08:23.425Z,4.20
2023-04-26T02:13:29.135Z,4.00
2023-04-26T02:18:35.922Z,3.90
2023-04-26T02:23:42.837Z,3.90
2023-04-26T02:28:50.356Z,3.80
2023-04-26T02:33:56.532Z,3.70
2023-04-26T02:39:02.650Z,3.80
2023-04-26T02:44:11.276Z,3.80
2023-04-26T02:49:17.486Z,3.80
2023-04-26T02:54:23.066Z,3.80
2023-04-26T02:59:29.973Z,3.70
2023-04-26T03:04:37.111Z,3.70
2023-04-26T03:09:43.484Z,3.70
2023-04-26T03:14:50.889Z,3.70
2023-04-26T03:19:56.611Z,3.80
2023-04-26T03:25:03.512Z,3.60
2023-04-26T03:30:09.932Z,3.60
2023-04-26T03:35:16.007Z,3.70
2023-04-26T03:40:22.855Z,3.80
2023-04-26T03:45:28.821Z,3.70
2023-04-26T03:50:34.593Z,3.70
2023-04-26T03:55:40.618Z,3.70
2023-04-26T04:00:47.203Z,3.80
2023-04-26T04:05:52.862Z,3.80
2023-04-26T04:10:58.415Z,3.70
2023-04-26T04:16:05.200Z,3.60
2023-04-26T04:21:11.195Z,3.40
2023-04-26T04:26:17.920Z,3.30
2023-04-26T04:31:24.448Z,3.30
2023-04-26T04:36:31.036Z,3.40
2023-04-26T04:41:37.085Z,3.10
2023-04-26T04:46:43.725Z,3.30
2023-04-26T04:51:49.646Z,3.40
2023-04-26T04:56:56.171Z,3.40
2023-04-26T05:02:01.754Z,3.50
2023-04-26T05:07:08.154Z,3.60
2023-04-26T05:12:13.941Z,3.90
2023-04-26T05:17:20.415Z,4.00
2023-04-26T05:22:26.544Z,4.20
2023-04-26T05:27:32.724Z,4.20
2023-04-26T05:32:40.726Z,4.20
2023-04-26T05:37:46.849Z,4.10
2023-04-26T05:42:54.404Z,4.10
2023-04-26T05:48:00.938Z,4.30
2023-04-26T05:53:07.212Z,4.50
2023-04-26T05:58:13.613Z,4.90
2023-04-26T06:03:19.831Z,4.80
2023-04-26T06:08:26.756Z,4.90
2023-04-26T06:13:33.320Z,5.00
2023-04-26T06:18:38.946Z,5.30
2023-04-26T06:23:44.821Z,5.70
2023-04-26T06:28:51.015Z,5.90
2023-04-26T06:33:57.407Z,5.40
2023-04-26T06:39:03.563Z,5.90
2023-04-26T06:44:09.196Z,6.00
2023-04-26T06:49:15.457Z,6.10
2023-04-26T06:54:22.406Z,5.20
2023-04-26T06:59:28.697Z,4.80
2023-04-26T07:04:34.937Z,5.30
2023-04-26T07:09:41.211Z,5.80
2023-04-26T07:14:47.132Z,5.60
2023-04-26T07:19:54.983Z,5.20
2023-04-26T07:25:00.905Z,5.40
2023-04-26T07:30:07.749Z,5.80
2023-04-26T07:35:15.081Z,6.20
2023-04-26T07:40:22.872Z,6.10
2023-04-26T07:45:29.329Z,5.90
2023-04-26T07:50:36.415Z,6.70
2023-04-26T07:55:42.727Z,6.70
2023-04-26T08:00:49.505Z,6.10
2023-04-26T08:05:55.903Z,6.60
2023-04-26T08:11:02.381Z,5.70
2023-04-26T08:16:08.727Z,5.60
2023-04-26T08:21:15.563Z,6.10
2023-04-26T08:26:21.219Z,6.40
2023-04-26T08:31:27.672Z,6.90
2023-04-26T08:36:35.134Z,7.00
2023-04-26T08:41:45.910Z,6.40
2023-04-26T08:47:19.732Z,6.80
2023-04-26T08:52:29.963Z,6.20
2023-04-26T08:57:35.996Z,7.70
2023-04-26T09:02:44.262Z,8.00
2023-04-26T09:07:51.684Z,7.60
2023-04-26T09:12:59.207Z,6.60
2023-04-26T09:18:21.290Z,7.40
2023-04-26T09:23:27.302Z,8.10
2023-04-26T09:28:33.180Z,7.90
2023-04-26T09:33:41.897Z,7.20
2023-04-26T09:38:47.801Z,6.90
2023-04-26T09:43:56.545Z,8.70
2023-04-26T09:49:03.714Z,7.50
2023-04-26T09:54:09.800Z,6.90
2023-04-26T09:59:15.733Z,6.50
2023-04-26T10:04:21.660Z,6.60
2023-04-26T10:09:28.755Z,7.60
2023-04-26T10:14:36.334Z,8.60
2023-04-26T10:19:44.783Z,8.00
2023-04-26T10:24:52.611Z,7.90
2023-04-26T10:30:01.331Z,8.60
2023-04-26T10:35:14.177Z,9.00
2023-04-26T10:40:33.688Z,9.00
2023-04-26T10:45:40.778Z,9.40
2023-04-26T10:51:13.680Z,9.50
2023-04-26T10:56:28.757Z,8.80
2023-04-26T11:01:35.371Z,8.90
2023-04-26T11:07:01.728Z,9.60
2023-04-26T11:12:09.144Z,8.60
2023-04-26T11:17:15.788Z,8.30
2023-04-26T11:22:23.706Z,8.60
2023-04-26T11:27:29.629Z,8.70
2023-04-26T11:32:35.648Z,8.30
2023-04-26T11:37:41.094Z,8.00
2023-04-26T11:42:46.925Z,7.90
2023-04-26T11:47:53.065Z,8.10
2023-04-26T11:53:00.952Z,8.90
2023-04-26T11:58:14.563Z,9.20
2023-04-26T12:03:20.741Z,8.50
2023-04-26T12:08:27.749Z,8.00
2023-04-26T12:13:33.684Z,7.90
2023-04-26T12:18:40.033Z,8.00
2023-04-26T12:23:47.654Z,8.40
2023-04-26T12:28:53.559Z,8.80
2023-04-26T12:33:59.573Z,8.60
2023-04-26T12:39:07.092Z,8.50
2023-04-26T12:44:14.429Z,8.10
2023-04-26T12:49:21.189Z,7.60
2023-04-26T12:54:28.050Z,8.10
2023-04-26T12:59:35.002Z,8.70
2023-04-26T13:04:41.837Z,8.40
2023-04-26T13:09:48.040Z,8.40
2023-04-26T13:14:54.289Z,9.40
2023-04-26T13:20:00.530Z,9.60
2023-04-26T13:25:06.949Z,8.70
2023-04-26T13:30:16.455Z,8.90
2023-04-26T13:35:23.325Z,8.50
2023-04-26T13:40:29.833Z,9.00
2023-04-26T13:45:35.910Z,9.10
2023-04-26T13:50:41.839Z,8.70
2023-04-26T13:55:49.345Z,8.00
2023-04-26T14:00:58.946Z,8.10
2023-04-26T14:06:04.927Z,8.20
2023-04-26T14:11:12.023Z,8.60
2023-04-26T14:16:19.879Z,9.60
2023-04-26T14:21:26.929Z,9.10
2023-04-26T14:26:33.577Z,8.90
2023-04-26T14:31:39.456Z,8.80
2023-04-26T14:36:45.170Z,8.90
2023-04-26T14:41:52.162Z,9.40
2023-04-26T14:46:58.568Z,9.40
2023-04-26T14:52:05.800Z,9.60
2023-04-26T14:57:12.347Z,9.30
2023-04-26T15:02:19.317Z,8.90
2023-04-26T15:07:31.800Z,8.60
2023-04-26T15:12:33.123Z,8.30
2023-04-26T15:17:39.597Z,8.10
2023-04-26T15:22:45.625Z,8.20
2023-04-26T15:27:51.879Z,8.30
2023-04-26T15:32:58.532Z,8.50
2023-04-26T15:38:04.544Z,8.30
2023-04-26T15:43:11.374Z,8.10
2023-04-26T15:48:16.839Z,7.90
2023-04-26T15:53:24.772Z,8.00
2023-04-26T15:58:31.520Z,7.80
2023-04-26T16:03:38.783Z,7.80
2023-04-26T16:08:45.924Z,7.60
2023-04-26T16:13:52.042Z,7.40
2023-04-26T16:18:57.728Z,7.40
2023-04-26T16:24:03.430Z,7.60
2023-04-26T16:29:09.093Z,7.60
2023-04-26T16:34:15.409Z,7.70
2023-04-26T16:39:21.769Z,7.60
2023-04-26T16:44:28.505Z,7.60
2023-04-26T16:49:34.685Z,7.40
2023-04-26T16:54:41.145Z,7.20
2023-04-26T16:59:47.880Z,7.10
2023-04-26T17:04:53.886Z,7.00
2023-04-26T17:09:59.507Z,7.00
2023-04-26T17:15:05.636Z,6.90
2023-04-26T17:20:13.631Z,6.80
2023-04-26T17:25:20.477Z,6.70
2023-04-26T17:30:26.047Z,6.80
2023-04-26T17:35:32.437Z,6.90
2023-04-26T17:40:38.594Z,6.70
2023-04-26T17:45:44.196Z,6.80
2023-04-26T17:50:51.074Z,6.70
2023-04-26T17:55:57.192Z,6.80
2023-04-26T18:01:03.265Z,6.70
2023-04-26T18:06:09.159Z,6.60
2023-04-26T18:11:16.087Z,6.50
2023-04-26T18:16:21.734Z,6.40
2023-04-26T18:21:28.155Z,6.30
2023-04-26T18:26:34.028Z,6.30
2023-04-26T18:31:41.863Z,6.20
2023-04-26T18:36:49.495Z,6.10
2023-04-26T18:41:56.369Z,6.00
2023-04-26T18:47:06.139Z,6.00
2023-04-26T18:52:12.127Z,5.90
2023-04-26T18:57:20.974Z,5.80
2023-04-26T19:02:27.323Z,5.80
2023-04-26T19:07:34.447Z,5.80
2023-04-26T19:12:40.927Z,5.20
2023-04-26T19:17:47.401Z,5.30
2023-04-26T19:22:53.505Z,5.00
2023-04-26T19:28:00.178Z,4.60
2023-04-26T19:33:06.385Z,4.70
2023-04-26T19:38:13.367Z,4.70
2023-04-26T19:43:22.580Z,4.80
2023-04-26T19:48:29.949Z,4.80
2023-04-26T19:53:36.221Z,4.80
2023-04-26T19:58:42.384Z,4.80
2023-04-26T20:03:49.033Z,4.80
2023-04-26T20:08:55.067Z,4.70
2023-04-26T20:14:01.159Z,4.70
2023-04-26T20:19:09.299Z,4.60
2023-04-26T20:24:17.793Z,4.60
2023-04-26T20:29:24.323Z,4.60
2023-04-26T20:34:30.060Z,4.70
2023-04-26T20:39:36.946Z,4.60
2023-04-26T20:44:42.965Z,4.50
2023-04-26T20:49:49.864Z,4.60
2023-04-26T20:54:58.476Z,4.70
2023-04-26T21:00:08.916Z,4.80
2023-04-26T21:05:15.942Z,4.70
2023-04-26T21:10:22.016Z,4.40
2023-04-26T21:15:28.659Z,4.10
2023-04-26T21:20:35.258Z,3.90
2023-04-26T21:25:46.120Z,4.00
2023-04-26T21:30:54.593Z,4.00
2023-04-26T21:36:03.709Z,3.90
2023-04-26T21:41:09.764Z,3.80
2023-04-26T21:46:15.494Z,3.40
2023-04-26T21:51:21.664Z,3.40
2023-04-26T21:56:27.614Z,3.40
2023-04-26T22:01:34.199Z,3.30
2023-04-26T22:06:40.936Z,3.30
2023-04-26T22:11:47.091Z,3.30
2023-04-26T22:16:53.438Z,3.40
2023-04-26T22:22:00.007Z,3.40
2023-04-26T22:27:06.923Z,3.20
2023-04-26T22:32:12.863Z,3.20
2023-04-26T22:37:21.265Z,3.10
2023-04-26T22:42:26.971Z,3.00
2023-04-26T22:47:32.541Z,2.80
2023-04-26T22:52:39.179Z,2.80
2023-04-26T22:57:45.292Z,2.80
2023-04-26T23:02:51.761Z,2.30
2023-04-26T23:07:58.142Z,2.20
2023-04-26T23:13:05.030Z,2.10
2023-04-26T23:18:12.001Z,2.20
2023-04-26T23:23:18.206Z,2.40
2023-04-26T23:28:24.448Z,2.30
2023-04-26T23:33:30.421Z,1.90
2023-04-26T23:38:36.889Z,1.50
2023-04-26T23:43:43.118Z,1.40
2023-04-26T23:48:49.311Z,1.50
2023-04-26T23:53:55.194Z,1.40
2023-04-26T23:59:01.173Z,1.20
